Time;durP1;ratioP1;P1;durP2;ratioP2;P2;SDS_P1;SDS_P2;PMS_P1;PMS_P2;Temp;Humidity;BMP_temperature;BMP_pressure;BME280_temperature;BME280_humidity;BME280_pressure;Samples;Min_cycle;Max_cycle;Signal;HPM_P1;HPM_P2
2022/09/23 00:00:47;;;;;;;10.83;6.97;;;12.10;99.90;;;;;;5135041;27;20202;-83
2022/09/23 00:03:16;;;;;;;7.53;6.27;;;12.20;99.90;;;;;;5135217;27;20697;-83
2022/09/23 00:05:43;;;;;;;7.87;6.47;;;12.00;99.90;;;;;;5134835;27;20195;-83
2022/09/23 00:08:11;;;;;;;9.97;7.57;;;12.00;99.90;;;;;;5134873;27;20657;-83
2022/09/23 00:10:39;;;;;;;13.53;7.50;;;12.00;99.90;;;;;;5134890;27;20206;-84
2022/09/23 00:13:08;;;;;;;8.13;5.90;;;12.00;99.90;;;;;;5135335;27;20198;-83
2022/09/23 00:15:39;;;;;;;10.40;6.73;;;12.00;99.90;;;;;;5134873;27;20296;-83
2022/09/23 00:18:07;;;;;;;8.60;6.40;;;12.00;99.90;;;;;;5135282;27;20192;-84
2022/09/23 00:20:35;;;;;;;14.33;6.30;;;12.00;99.90;;;;;;5138850;27;20203;-83
2022/09/23 00:23:02;;;;;;;7.80;6.50;;;12.00;99.90;;;;;;5139335;27;20262;-83
2022/09/23 00:25:29;;;;;;;9.27;6.33;;;11.90;99.90;;;;;;5140291;27;20201;-84
2022/09/23 00:27:57;;;;;;;8.53;6.13;;;11.90;99.90;;;;;;5139728;27;20551;-84
2022/09/23 00:30:26;;;;;;;8.27;6.87;;;11.90;99.90;;;;;;5134746;27;20712;-83
2022/09/23 00:32:52;;;;;;;6.93;6.33;;;11.80;99.90;;;;;;5134983;27;20255;-83
2022/09/23 00:35:19;;;;;;;9.53;6.50;;;11.80;99.90;;;;;;5134638;27;20186;-83
2022/09/23 00:37:46;;;;;;;10.20;7.27;;;11.80;99.90;;;;;;5134793;27;20246;-83
2022/09/23 00:40:13;;;;;;;7.60;6.90;;;11.80;99.90;;;;;;5134657;27;20597;-85
2022/09/23 00:42:46;;;;;;;7.97;6.67;;;11.80;99.90;;;;;;5134587;27;20229;-84
2022/09/23 00:45:14;;;;;;;8.57;6.50;;;11.90;99.90;;;;;;5134418;27;20258;-85
2022/09/23 00:47:47;;;;;;;7.60;6.70;;;11.80;99.90;;;;;;5134407;27;20213;-84
2022/09/23 00:50:22;;;;;;;6.90;6.10;;;11.90;99.90;;;;;;5134425;27;20194;-84
2022/09/23 00:52:50;;;;;;;9.23;7.00;;;11.80;99.90;;;;;;5134417;27;20543;-84
2022/09/23 00:55:22;;;;;;;10.23;6.77;;;11.70;99.90;;;;;;5134642;27;20676;-83
2022/09/23 00:57:49;;;;;;;10.50;7.20;;;11.70;99.90;;;;;;5134491;27;20202;-84
2022/09/23 01:00:17;;;;;;;12.03;7.20;;;11.70;99.90;;;;;;5134037;27;20686;-84
2022/09/23 01:02:46;;;;;;;10.43;6.90;;;11.70;99.90;;;;;;5133946;27;20584;-84
2022/09/23 01:05:14;;;;;;;9.17;6.83;;;11.70;99.90;;;;;;5134412;27;20666;-85
2022/09/23 01:07:41;;;;;;;10.20;6.90;;;11.70;99.90;;;;;;5134510;27;20206;-85
2022/09/23 01:10:10;;;;;;;9.97;6.90;;;11.70;99.90;;;;;;5134246;27;20199;-85
2022/09/23 01:12:58;;;;;;;8.73;7.17;;;11.70;99.90;;;;;;5134195;27;20201;-84
2022/09/23 01:15:33;;;;;;;9.20;7.03;;;11.70;99.90;;;;;;5134362;27;20201;-85
2022/09/23 01:18:14;;;;;;;8.47;6.90;;;11.70;99.90;;;;;;5136473;27;20685;-85
2022/09/23 01:20:58;;;;;;;9.47;6.57;;;11.60;99.90;;;;;;5138660;27;20565;-84
2022/09/23 01:23:58;;;;;;;11.83;6.83;;;11.60;99.90;;;;;;5138293;27;20307;-85
2022/09/23 01:26:48;;;;;;;10.93;8.38;;;11.50;99.90;;;;;;5126288;27;20779;-85
2022/09/23 01:29:52;;;;;;;9.67;7.23;;;11.80;99.90;;;;;;5138483;27;20209;-84
2022/09/23 01:32:31;;;;;;;10.83;7.70;;;11.80;99.90;;;;;;5138011;27;20205;-85
2022/09/23 01:35:04;;;;;;;8.03;7.23;;;11.60;99.90;;;;;;5138227;27;20195;-85
2022/09/23 01:37:37;;;;;;;9.43;7.17;;;11.50;99.90;;;;;;5138485;27;20216;-85
2022/09/23 01:40:10;;;;;;;7.43;6.70;;;11.50;99.90;;;;;;5138153;27;20204;-84
2022/09/23 01:42:41;;;;;;;11.57;7.43;;;11.30;99.90;;;;;;5138353;27;20272;-85
2022/09/23 01:45:15;;;;;;;9.67;7.27;;;11.30;99.90;;;;;;5137996;27;20202;-84
2022/09/23 01:47:52;;;;;;;9.53;7.47;;;11.30;99.90;;;;;;5138132;27;20196;-84
2022/09/23 01:53:14;;;;;;;9.80;7.30;;;11.20;99.90;;;;;;5138026;27;20281;-84
2022/09/23 01:55:47;;;;;;;10.33;7.27;;;11.20;99.90;;;;;;5137750;27;20210;-85
2022/09/23 01:58:20;;;;;;;8.80;6.53;;;11.10;99.90;;;;;;5137657;27;20232;-85
2022/09/23 02:00:52;;;;;;;11.63;7.30;;;10.90;99.90;;;;;;5137102;27;20282;-85
2022/09/23 02:03:25;;;;;;;9.27;7.50;;;10.90;99.90;;;;;;5137256;27;20227;-84
2022/09/23 02:05:58;;;;;;;7.90;7.10;;;11.00;99.90;;;;;;5137724;27;20206;-84
2022/09/23 02:08:30;;;;;;;9.90;7.20;;;10.90;99.90;;;;;;5137447;27;20769;-85
2022/09/23 02:11:03;;;;;;;12.37;7.77;;;10.90;99.90;;;;;;5137680;27;20192;-85
2022/09/23 02:13:37;;;;;;;9.33;8.03;;;10.90;99.90;;;;;;5137491;27;20235;-84
2022/09/23 02:16:10;;;;;;;8.20;6.87;;;10.90;99.90;;;;;;5137486;27;20273;-84
2022/09/23 02:18:45;;;;;;;9.20;7.40;;;10.90;99.90;;;;;;5137220;27;20664;-85
2022/09/23 02:21:15;;;;;;;8.80;7.00;;;10.90;99.90;;;;;;5137081;27;20188;-85
2022/09/23 02:23:44;;;;;;;11.80;8.23;;;10.90;99.90;;;;;;5137216;27;20310;-85
2022/09/23 02:26:18;;;;;;;13.77;7.70;;;10.90;99.90;;;;;;5137444;27;20200;-85
2022/09/23 02:28:56;;;;;;;8.07;7.33;;;10.90;99.90;;;;;;5135846;27;20268;-83
2022/09/23 02:31:32;;;;;;;10.87;9.63;;;11.00;99.90;;;;;;5136354;27;20526;-84
2022/09/23 02:34:07;;;;;;;11.53;8.60;;;11.00;99.90;;;;;;5137316;27;20450;-85
2022/09/23 02:36:42;;;;;;;14.90;9.03;;;11.00;99.90;;;;;;5136982;27;20230;-84
2022/09/23 02:39:13;;;;;;;10.33;8.13;;;11.00;99.90;;;;;;5136852;27;20287;-85
2022/09/23 02:41:49;;;;;;;9.83;7.93;;;11.00;99.90;;;;;;5137110;27;20231;-85
2022/09/23 02:44:18;;;;;;;9.63;8.40;;;11.00;99.90;;;;;;5136719;27;20200;-84
2022/09/23 02:46:46;;;;;;;13.50;8.50;;;11.00;99.90;;;;;;5136727;27;20195;-84
2022/09/23 02:49:19;;;;;;;10.80;8.43;;;11.00;99.90;;;;;;5136722;27;20223;-84
2022/09/23 02:51:46;;;;;;;9.67;8.43;;;11.00;99.90;;;;;;5136768;27;20200;-84
2022/09/23 02:54:16;;;;;;;11.48;10.32;;;11.00;99.90;;;;;;5135952;27;20764;-84
2022/09/23 02:56:43;;;;;;;9.60;8.57;;;11.10;99.90;;;;;;5136514;27;20203;-84
2022/09/23 02:59:11;;;;;;;9.97;8.40;;;11.20;99.90;;;;;;5136313;27;20230;-85
2022/09/23 03:01:46;;;;;;;12.10;8.17;;;11.00;99.90;;;;;;5136367;27;20674;-84
2022/09/23 03:04:21;;;;;;;11.10;8.00;;;11.00;99.90;;;;;;5136230;27;20231;-85
2022/09/23 03:06:58;;;;;;;13.40;8.37;;;11.10;99.90;;;;;;5136443;27;20210;-84
2022/09/23 03:09:29;;;;;;;9.77;8.77;;;11.10;99.90;;;;;;5136304;27;20203;-85
2022/09/23 03:12:05;;;;;;;9.57;8.13;;;11.00;99.90;;;;;;5136271;27;20264;-84
2022/09/23 03:14:41;;;;;;;9.23;8.33;;;11.10;99.90;;;;;;5135905;27;20116;-84
2022/09/23 03:17:14;;;;;;;9.07;8.23;;;10.90;99.90;;;;;;5136046;27;20196;-84
2022/09/23 03:19:49;;;;;;;12.47;9.00;;;10.80;99.90;;;;;;5136543;27;20194;-84
2022/09/23 03:22:21;;;;;;;9.07;8.00;;;10.80;99.90;;;;;;5135965;27;20627;-83
2022/09/23 03:24:50;;;;;;;9.37;7.70;;;10.70;99.90;;;;;;5136066;27;20207;-84
2022/09/23 03:27:22;;;;;;;11.57;8.07;;;10.90;99.90;;;;;;5136145;27;20208;-84
2022/09/23 03:29:51;;;;;;;9.23;8.23;;;10.90;99.90;;;;;;5135809;27;20203;-85
2022/09/23 03:32:20;;;;;;;9.27;7.47;;;10.90;99.90;;;;;;5136210;27;20211;-84
2022/09/23 03:34:51;;;;;;;9.10;8.03;;;10.90;99.90;;;;;;5135797;27;20207;-84
2022/09/23 03:37:24;;;;;;;10.87;7.77;;;10.80;99.90;;;;;;5135516;27;20211;-84
2022/09/23 03:39:55;;;;;;;9.53;7.30;;;10.90;99.90;;;;;;5135426;27;20255;-84
2022/09/23 03:42:26;;;;;;;10.07;7.57;;;10.90;99.90;;;;;;5135116;27;20199;-84
2022/09/23 03:44:55;;;;;;;15.43;7.77;;;11.00;99.90;;;;;;5135760;27;20215;-84
2022/09/23 03:47:22;;;;;;;14.13;7.93;;;10.90;99.90;;;;;;5135761;27;20204;-85
2022/09/23 03:49:50;;;;;;;11.13;7.53;;;10.90;99.90;;;;;;5135677;27;20203;-84
2022/09/23 03:52:19;;;;;;;8.63;7.27;;;10.90;99.90;;;;;;5135652;27;20200;-83
2022/09/23 03:54:46;;;;;;;9.40;7.53;;;11.10;99.90;;;;;;5135392;27;20199;-84
2022/09/23 03:57:13;;;;;;;9.17;6.40;;;11.20;99.90;;;;;;5135146;27;20646;-85
2022/09/23 03:59:41;;;;;;;7.83;7.03;;;11.30;99.90;;;;;;5135087;27;20596;-84
2022/09/23 04:02:08;;;;;;;9.20;7.47;;;11.20;99.90;;;;;;5135546;27;20196;-84
2022/09/23 04:04:37;;;;;;;10.90;6.93;;;11.20;99.90;;;;;;5135300;27;20239;-84
2022/09/23 04:07:06;;;;;;;10.57;7.40;;;11.10;99.90;;;;;;5135279;27;20200;-84
2022/09/23 04:09:33;;;;;;;13.97;7.17;;;11.10;99.90;;;;;;5135226;27;20212;-85
2022/09/23 04:12:00;;;;;;;10.07;7.33;;;11.00;99.90;;;;;;5134862;27;20213;-84
2022/09/23 04:14:27;;;;;;;8.13;7.33;;;11.00;99.90;;;;;;5135185;27;20651;-84
2022/09/23 04:16:54;;;;;;;9.10;7.17;;;11.00;99.90;;;;;;5134901;27;20207;-84
2022/09/23 04:19:21;;;;;;;10.20;7.63;;;11.10;99.90;;;;;;5135047;27;20196;-84
2022/09/23 04:21:48;;;;;;;9.38;8.13;;;11.20;99.90;;;;;;5134527;27;20426;-84
2022/09/23 04:24:17;;;;;;;11.47;7.17;;;11.20;99.90;;;;;;5134667;27;20226;-85
2022/09/23 04:26:44;;;;;;;12.70;7.10;;;11.10;99.90;;;;;;5134782;27;20199;-84
2022/09/23 04:29:11;;;;;;;10.00;7.13;;;11.10;99.90;;;;;;5134817;27;20199;-84
2022/09/23 04:31:38;;;;;;;12.63;7.40;;;11.00;99.90;;;;;;5134934;27;20200;-84
2022/09/23 04:34:05;;;;;;;13.23;7.50;;;11.00;99.90;;;;;;5134732;27;20663;-84
2022/09/23 04:36:32;;;;;;;16.17;7.23;;;11.10;99.90;;;;;;5134757;27;20200;-84
2022/09/23 04:38:59;;;;;;;8.40;7.00;;;11.10;99.90;;;;;;5134239;27;20204;-84
2022/09/23 04:41:28;;;;;;;13.03;8.30;;;11.10;99.90;;;;;;5134448;27;20213;-84
2022/09/23 04:43:56;;;;;;;9.30;7.33;;;11.00;99.90;;;;;;5134742;27;20257;-84
2022/09/23 04:46:23;;;;;;;10.10;8.40;;;11.10;99.90;;;;;;5134424;27;20616;-84
2022/09/23 04:48:50;;;;;;;10.13;8.03;;;11.10;99.90;;;;;;5134278;27;20544;-84
2022/09/23 04:51:18;;;;;;;12.07;8.07;;;11.00;99.90;;;;;;5134017;27;20205;-84
2022/09/23 04:53:48;;;;;;;8.10;7.27;;;10.90;99.90;;;;;;5133873;27;20208;-84
2022/09/23 04:56:17;;;;;;;12.50;7.33;;;11.10;99.90;;;;;;5134423;27;20659;-84
2022/09/23 04:58:45;;;;;;;11.20;8.00;;;11.00;99.90;;;;;;5134248;27;20595;-84
2022/09/23 05:01:14;;;;;;;10.03;6.90;;;11.10;99.90;;;;;;5134151;27;20211;-84
2022/09/23 05:03:42;;;;;;;9.77;7.47;;;11.10;99.90;;;;;;5134013;27;20706;-84
2022/09/23 05:06:12;;;;;;;11.53;7.30;;;11.10;99.90;;;;;;5134615;27;20188;-84
2022/09/23 05:08:41;;;;;;;12.55;9.10;;;11.10;99.90;;;;;;5133352;27;20870;-84
2022/09/23 05:11:08;;;;;;;14.37;7.70;;;11.30;99.90;;;;;;5133733;27;20207;-83
2022/09/23 05:13:35;;;;;;;13.30;7.57;;;11.30;99.90;;;;;;5134509;27;20215;-84
2022/09/23 05:16:06;;;;;;;11.57;7.37;;;11.20;99.90;;;;;;5134160;27;20191;-83
2022/09/23 05:18:34;;;;;;;10.60;7.10;;;11.20;99.90;;;;;;5134097;27;20196;-82
2022/09/23 05:21:01;;;;;;;9.23;7.20;;;11.20;99.90;;;;;;5134080;27;20200;-82
2022/09/23 05:23:28;;;;;;;8.17;6.90;;;11.20;99.90;;;;;;5133845;27;20235;-84
2022/09/23 05:26:00;;;;;;;9.87;6.63;;;11.10;99.90;;;;;;5134049;27;20213;-81
2022/09/23 05:28:28;;;;;;;10.93;6.83;;;11.20;99.90;;;;;;5133941;27;20189;-82
2022/09/23 05:31:04;;;;;;;12.63;8.00;;;11.00;99.90;;;;;;5133131;27;20460;-84
2022/09/23 05:33:31;;;;;;;12.43;7.60;;;11.20;99.90;;;;;;5134416;27;20227;-84
2022/09/23 05:35:58;;;;;;;11.10;7.03;;;11.20;99.90;;;;;;5134112;27;20206;-84
2022/09/23 05:38:25;;;;;;;14.10;7.00;;;11.30;99.90;;;;;;5133600;27;20209;-82
2022/09/23 05:40:56;;;;;;;11.83;6.87;;;11.30;99.90;;;;;;5134010;27;20205;-82
2022/09/23 05:43:23;;;;;;;13.47;6.93;;;11.20;99.90;;;;;;5133899;27;20626;-82
2022/09/23 05:45:50;;;;;;;12.43;6.63;;;11.10;99.90;;;;;;5133354;27;20296;-82
2022/09/23 05:48:18;;;;;;;8.60;6.27;;;11.00;99.90;;;;;;5134034;27;20197;-81
2022/09/23 05:50:50;;;;;;;7.73;5.53;;;11.10;99.90;;;;;;5133626;27;20200;-82
2022/09/23 05:53:17;;;;;;;11.63;6.60;;;11.20;99.90;;;;;;5133909;27;20197;-82
2022/09/23 05:55:44;;;;;;;10.33;6.13;;;11.30;99.90;;;;;;5133793;27;20690;-83
2022/09/23 05:58:11;;;;;;;9.33;5.93;;;11.40;99.90;;;;;;5133772;27;20295;-82
2022/09/23 06:00:39;;;;;;;17.73;6.77;;;11.50;99.90;;;;;;5133555;27;20212;-82
2022/09/23 06:03:06;;;;;;;9.77;6.77;;;11.30;99.90;;;;;;5134490;27;20683;-82
2022/09/23 06:05:35;;;;;;;12.60;6.47;;;11.10;99.90;;;;;;5137437;27;20205;-82
2022/09/23 06:08:02;;;;;;;9.90;6.60;;;11.20;99.90;;;;;;5137408;27;20205;-81
2022/09/23 06:10:29;;;;;;;7.20;6.10;;;11.30;99.90;;;;;;5137648;27;20200;-82
2022/09/23 06:12:56;;;;;;;7.80;5.73;;;11.30;99.90;;;;;;5137368;27;20208;-85
2022/09/23 06:15:23;;;;;;;9.20;5.97;;;11.40;99.90;;;;;;5136998;27;20200;-84
2022/09/23 06:17:50;;;;;;;9.90;7.07;;;11.40;99.90;;;;;;5136345;27;20756;-84
2022/09/23 06:20:17;;;;;;;6.73;5.80;;;11.40;99.90;;;;;;5137473;27;20437;-83
2022/09/23 06:22:45;;;;;;;8.17;6.70;;;11.40;99.90;;;;;;5137147;27;20284;-82
2022/09/23 06:25:12;;;;;;;7.73;6.20;;;11.30;99.90;;;;;;5137224;27;20250;-82
2022/09/23 06:27:39;;;;;;;6.67;5.70;;;11.30;99.90;;;;;;5136831;27;20553;-81
2022/09/23 06:30:07;;;;;;;7.07;5.80;;;11.40;99.90;;;;;;5137422;27;20211;-82
2022/09/23 06:32:34;;;;;;;14.93;6.50;;;11.40;99.90;;;;;;5137104;27;20297;-82
2022/09/23 06:35:01;;;;;;;8.23;5.50;;;11.40;99.90;;;;;;5137133;27;20645;-82
2022/09/23 06:37:29;;;;;;;6.83;6.13;;;11.60;99.90;;;;;;5136370;27;20206;-83
2022/09/23 06:39:57;;;;;;;6.80;5.40;;;11.40;99.90;;;;;;5137044;27;20289;-82
2022/09/23 06:42:25;;;;;;;11.03;6.23;;;11.50;99.90;;;;;;5137142;27;20221;-82
2022/09/23 06:44:52;;;;;;;8.73;5.47;;;11.60;99.90;;;;;;5136646;27;20244;-81
2022/09/23 06:47:19;;;;;;;9.13;5.73;;;11.60;99.90;;;;;;5136983;27;20220;-82
2022/09/23 06:49:47;;;;;;;9.07;5.80;;;11.40;99.90;;;;;;5136920;27;20202;-82
2022/09/23 06:52:14;;;;;;;8.10;5.93;;;11.60;99.90;;;;;;5136824;27;20199;-82
2022/09/23 06:54:41;;;;;;;13.90;5.70;;;11.70;99.90;;;;;;5136629;27;20215;-81
2022/09/23 06:57:10;;;;;;;6.20;5.33;;;11.70;99.90;;;;;;5136948;27;20741;-82
2022/09/23 06:59:36;;;;;;;8.67;5.00;;;11.60;99.90;;;;;;5138894;27;20641;-81
2022/09/23 07:02:04;;;;;;;6.07;5.00;;;11.70;99.90;;;;;;5137381;27;20213;-82
2022/09/23 07:04:31;;;;;;;7.72;6.68;;;11.70;99.90;;;;;;5136009;27;20478;-82
2022/09/23 07:06:58;;;;;;;9.40;5.93;;;12.10;99.90;;;;;;5130094;27;20194;-82
2022/09/23 07:09:26;;;;;;;8.03;5.40;;;12.10;99.90;;;;;;5125740;27;20206;-82
2022/09/23 07:11:53;;;;;;;10.27;5.40;;;11.90;99.90;;;;;;5126898;27;20187;-81
2022/09/23 07:14:21;;;;;;;6.90;5.20;;;11.90;99.90;;;;;;5124363;27;20206;-82
2022/09/23 07:16:49;;;;;;;10.53;5.23;;;11.90;99.90;;;;;;5124810;27;20189;-82
2022/09/23 07:19:16;;;;;;;9.30;5.23;;;12.00;99.90;;;;;;5131639;27;20199;-84
2022/09/23 07:21:42;;;;;;;10.13;5.53;;;12.10;99.90;;;;;;5135851;27;20222;-82
2022/09/23 07:24:10;;;;;;;14.70;5.53;;;12.20;99.90;;;;;;5136059;27;20213;-82
2022/09/23 07:26:36;;;;;;;6.97;4.90;;;12.30;99.90;;;;;;5136052;27;20661;-81
2022/09/23 07:29:04;;;;;;;5.97;4.77;;;12.40;99.90;;;;;;5136199;27;20217;-82
2022/09/23 07:31:34;;;;;;;7.50;4.77;;;12.40;99.90;;;;;;5136145;27;20197;-82
2022/09/23 07:34:01;;;;;;;7.90;4.57;;;12.60;99.90;;;;;;5135773;27;20209;-83
2022/09/23 07:36:30;;;;;;;9.77;5.03;;;12.50;99.90;;;;;;5136169;27;20210;-82
2022/09/23 07:38:59;;;;;;;8.53;5.03;;;12.60;99.90;;;;;;5135506;27;20752;-82
2022/09/23 07:41:27;;;;;;;7.10;4.93;;;12.60;99.90;;;;;;5136177;27;20249;-83
2022/09/23 07:43:57;;;;;;;10.10;4.77;;;12.70;99.90;;;;;;5131338;27;20649;-84
2022/09/23 07:46:25;;;;;;;12.80;4.90;;;12.90;99.90;;;;;;5115667;28;20239;-82
2022/09/23 07:48:53;;;;;;;6.13;4.87;;;13.10;99.90;;;;;;5116048;28;20201;-83
2022/09/23 07:51:23;;;;;;;7.33;4.60;;;13.10;99.90;;;;;;5115658;28;20205;-84
2022/09/23 07:53:51;;;;;;;6.57;4.17;;;13.00;99.90;;;;;;5115181;28;20222;-83
2022/09/23 07:56:18;;;;;;;7.50;5.03;;;13.10;99.90;;;;;;5115561;28;20189;-82
2022/09/23 07:58:45;;;;;;;5.27;4.40;;;13.10;99.90;;;;;;5114808;27;20660;-84
2022/09/23 08:01:13;;;;;;;9.80;4.93;;;13.20;99.90;;;;;;5117898;27;20204;-81
2022/09/23 08:03:40;;;;;;;8.30;4.53;;;13.20;99.90;;;;;;5114069;28;20207;-81
2022/09/23 08:06:10;;;;;;;7.73;4.67;;;13.20;99.90;;;;;;5114502;28;20212;-81
2022/09/23 08:08:39;;;;;;;6.03;4.77;;;13.40;99.90;;;;;;5114113;28;20484;-81
2022/09/23 08:11:09;;;;;;;10.23;4.50;;;13.40;99.90;;;;;;5114380;28;20642;-81
2022/09/23 08:13:36;;;;;;;4.93;4.40;;;13.50;99.90;;;;;;5114019;28;20211;-82
2022/09/23 08:16:03;;;;;;;7.88;4.80;;;13.60;99.90;;;;;;5113579;28;20428;-82
2022/09/23 08:18:30;;;;;;;6.80;4.40;;;13.80;99.90;;;;;;5113547;28;20208;-82
2022/09/23 08:20:57;;;;;;;8.13;4.63;;;13.80;99.90;;;;;;5114086;28;20566;-83
2022/09/23 08:23:26;;;;;;;8.67;4.23;;;14.00;99.90;;;;;;5114056;28;20204;-83
2022/09/23 08:25:58;;;;;;;6.43;4.47;;;14.10;99.90;;;;;;5114207;28;20223;-82
2022/09/23 08:28:26;;;;;;;8.00;3.90;;;14.30;99.90;;;;;;5113882;28;20188;-83
2022/09/23 08:30:53;;;;;;;8.43;4.57;;;14.20;99.90;;;;;;5114093;28;20193;-82
2022/09/23 08:33:19;;;;;;;7.33;3.87;;;14.30;99.90;;;;;;5114134;28;20212;-82
2022/09/23 08:35:46;;;;;;;7.70;4.40;;;14.20;99.90;;;;;;5119438;27;20200;-79
2022/09/23 08:38:13;;;;;;;6.67;4.30;;;14.20;99.90;;;;;;5132746;27;20210;-79
2022/09/23 08:40:44;;;;;;;9.82;4.95;;;14.30;99.90;;;;;;5132552;27;20414;-83
2022/09/23 08:43:25;;;;;;;8.13;4.20;;;14.50;99.90;;;;;;5128034;27;20601;-84
2022/09/23 08:45:52;;;;;;;6.60;4.47;;;14.60;99.90;;;;;;5134758;27;20212;-80
2022/09/23 08:48:28;;;;;;;7.40;4.53;;;14.70;99.90;;;;;;5134097;27;20196;-79
2022/09/23 08:51:02;;;;;;;45.27;6.47;;;14.80;99.90;;;;;;5134185;27;20658;-80
2022/09/23 08:53:32;;;;;;;5.33;4.00;;;15.00;99.90;;;;;;5134172;27;20556;-80
2022/09/23 08:56:04;;;;;;;12.93;4.53;;;15.00;99.90;;;;;;5134052;27;21950;-81
2022/09/23 08:58:43;;;;;;;11.27;4.37;;;15.20;99.90;;;;;;5123132;27;20223;-81
2022/09/23 09:01:18;;;;;;;7.50;4.33;;;15.30;99.90;;;;;;5112851;28;20572;-82
2022/09/23 09:03:48;;;;;;;6.93;4.07;;;15.30;99.90;;;;;;5113696;28;20193;-81
2022/09/23 09:06:20;;;;;;;7.88;5.00;;;15.20;99.90;;;;;;5112241;27;20535;-81
2022/09/23 09:08:53;;;;;;;7.40;3.90;;;15.50;99.90;;;;;;5126408;27;20203;-83
2022/09/23 09:11:24;;;;;;;7.00;4.40;;;15.70;99.90;;;;;;5119105;28;20213;-85
2022/09/23 09:13:59;;;;;;;5.83;4.23;;;15.70;99.90;;;;;;5113781;28;20207;-85
2022/09/23 09:16:43;;;;;;;7.77;4.30;;;15.70;99.90;;;;;;5113787;28;20204;-85
2022/09/23 09:19:17;;;;;;;4.77;3.67;;;15.80;99.90;;;;;;5114007;28;20199;-85
2022/09/23 09:21:46;;;;;;;4.93;3.83;;;16.00;99.90;;;;;;5113922;28;20203;-83
2022/09/23 09:24:18;;;;;;;4.97;4.00;;;16.10;99.90;;;;;;5113747;28;20200;-85
2022/09/23 09:26:46;;;;;;;7.37;3.97;;;16.30;99.90;;;;;;5113624;28;20204;-85
2022/09/23 09:29:18;;;;;;;4.67;3.57;;;16.50;99.90;;;;;;5113927;28;20207;-84
2022/09/23 09:31:46;;;;;;;6.23;4.20;;;16.40;99.90;;;;;;5113460;28;20200;-85
2022/09/23 09:34:21;;;;;;;11.80;3.87;;;16.30;99.90;;;;;;5113649;28;20184;-85
2022/09/23 09:36:57;;;;;;;5.43;3.97;;;16.30;99.90;;;;;;5113471;28;20208;-83
2022/09/23 09:39:24;;;;;;;6.33;4.20;;;16.40;99.90;;;;;;5117096;28;20242;-85
2022/09/23 09:41:59;;;;;;;9.37;4.13;;;16.40;99.90;;;;;;5117782;28;20234;-85
2022/09/23 09:44:30;;;;;;;5.83;4.07;;;16.50;99.90;;;;;;5117779;28;20215;-86
2022/09/23 09:47:18;;;;;;;5.07;3.83;;;16.60;99.90;;;;;;5117390;28;20568;-84
2022/09/23 09:49:51;;;;;;;4.53;3.93;;;16.70;99.90;;;;;;5114886;28;20197;-86
2022/09/23 09:52:23;;;;;;;5.37;4.00;;;17.00;99.90;;;;;;5117470;28;20200;-83
2022/09/23 09:54:51;;;;;;;7.83;4.03;;;17.10;99.90;;;;;;5117325;28;20193;-84
2022/09/23 09:57:32;;;;;;;9.40;4.43;;;17.10;99.90;;;;;;5117348;28;20216;-84
2022/09/23 10:00:18;;;;;;;12.33;4.30;;;17.20;99.90;;;;;;5116845;28;20715;-83
2022/09/23 10:02:45;;;;;;;11.00;4.67;;;17.20;99.90;;;;;;5117323;28;20198;-83
2022/09/23 10:05:25;;;;;;;5.07;3.87;;;17.20;99.90;;;;;;5117119;28;20233;-84
2022/09/23 10:07:52;;;;;;;8.30;4.27;;;17.20;99.90;;;;;;5116931;28;20234;-83
2022/09/23 10:10:22;;;;;;;7.23;4.13;;;17.20;99.90;;;;;;5117004;28;20206;-85
2022/09/23 10:12:52;;;;;;;8.70;4.27;;;17.00;99.90;;;;;;5119702;28;20227;-85
2022/09/23 10:15:33;;;;;;;7.60;4.43;;;16.90;99.90;;;;;;5120397;28;20205;-84
2022/09/23 10:18:01;;;;;;;7.67;4.03;;;17.30;99.90;;;;;;5119962;28;20200;-85
2022/09/23 10:20:36;;;;;;;4.73;4.13;;;17.60;99.90;;;;;;5118287;28;20566;-85
2022/09/23 10:23:08;;;;;;;5.33;3.80;;;17.90;99.90;;;;;;5119743;28;20205;-85
2022/09/23 10:25:37;;;;;;;6.43;3.83;;;18.10;99.90;;;;;;5119617;28;20215;-84
2022/09/23 10:28:39;;;;;;;6.27;4.37;;;17.80;99.90;;;;;;5117442;28;20233;-85
2022/09/23 10:31:07;;;;;;;8.63;4.60;;;17.80;99.90;;;;;;5116723;28;20263;-83
2022/09/23 10:33:39;;;;;;;5.43;3.80;;;17.80;99.90;;;;;;5116340;28;20209;-83
2022/09/23 10:36:09;;;;;;;7.63;4.43;;;17.80;99.90;;;;;;5116573;28;20203;-83
2022/09/23 10:38:36;;;;;;;7.97;4.07;;;18.00;99.90;;;;;;5116300;28;20207;-83
2022/09/23 10:46:58;;;;;;;6.67;4.40;;;18.00;99.90;;;;;;5116033;28;20215;-84
2022/09/23 10:49:55;;;;;;;7.43;4.27;;;17.90;99.90;;;;;;5115325;28;20208;-83
2022/09/23 10:52:35;;;;;;;8.47;4.37;;;18.00;99.90;;;;;;5116030;28;20200;-83
2022/09/23 10:55:15;;;;;;;8.43;4.30;;;18.40;99.90;;;;;;5116114;28;20264;-83
2022/09/23 10:57:57;;;;;;;6.93;4.57;;;18.50;99.90;;;;;;5115219;28;20590;-84
2022/09/23 11:00:35;;;;;;;10.87;4.33;;;18.90;99.90;;;;;;5116264;28;20218;-85
2022/09/23 11:03:24;;;;;;;4.00;3.53;;;19.20;99.90;;;;;;5116084;28;20261;-83
2022/09/23 11:06:05;;;;;;;8.53;4.60;;;19.60;99.90;;;;;;5115463;28;20232;-83
2022/09/23 11:08:57;;;;;;;12.07;4.57;;;19.40;99.90;;;;;;5115769;28;20283;-82
2022/09/23 11:11:35;;;;;;;10.97;4.67;;;19.30;99.90;;;;;;5115704;28;20287;-83
2022/09/23 11:14:24;;;;;;;4.47;3.47;;;19.10;99.90;;;;;;5115765;28;20204;-83
2022/09/23 11:17:14;;;;;;;14.30;3.97;;;19.40;99.90;;;;;;5115729;28;20200;-82
2022/09/23 11:20:16;;;;;;;5.70;3.70;;;19.60;99.90;;;;;;5115664;28;20211;-83
2022/09/23 11:23:09;;;;;;;4.10;3.70;;;19.40;99.90;;;;;;5115725;28;20199;-83
2022/09/23 11:25:47;;;;;;;6.53;4.20;;;19.30;99.90;;;;;;5115417;28;20581;-83
2022/09/23 11:28:44;;;;;;;7.77;3.90;;;19.30;99.90;;;;;;5115358;28;20201;-84
2022/09/23 11:31:23;;;;;;;5.40;4.13;;;19.30;99.90;;;;;;5114401;27;20208;-79
2022/09/23 11:34:19;;;;;;;6.40;4.30;;;19.20;99.90;;;;;;5114509;28;20429;-83
2022/09/23 11:36:51;;;;;;;10.20;4.53;;;19.20;99.90;;;;;;5115266;28;20216;-83
2022/09/23 11:39:23;;;;;;;6.30;4.37;;;19.40;99.90;;;;;;5115149;28;20288;-83
2022/09/23 11:41:55;;;;;;;10.57;3.90;;;19.50;99.90;;;;;;5114835;28;20208;-82
2022/09/23 11:44:28;;;;;;;4.50;4.10;;;19.70;99.90;;;;;;5115278;28;20191;-84
2022/09/23 11:47:01;;;;;;;6.37;4.17;;;19.90;99.90;;;;;;5114924;28;20220;-82
2022/09/23 11:49:34;;;;;;;7.17;4.00;;;20.10;99.90;;;;;;5114990;28;20208;-83
2022/09/23 11:52:06;;;;;;;4.17;3.70;;;19.60;99.90;;;;;;5114812;28;20253;-83
2022/09/23 11:54:40;;;;;;;5.20;3.80;;;19.60;99.90;;;;;;5114698;28;20185;-83
2022/09/23 11:57:13;;;;;;;6.23;3.90;;;19.60;99.90;;;;;;5114811;28;20200;-83
2022/09/23 11:59:46;;;;;;;7.40;4.35;;;19.80;99.90;;;;;;5113777;28;20436;-85
2022/09/23 12:02:20;;;;;;;9.03;4.10;;;19.90;99.90;;;;;;5114331;28;20206;-85
2022/09/23 12:04:57;;;;;;;5.73;3.93;;;19.90;99.90;;;;;;5114542;28;20211;-85
2022/09/23 12:07:28;;;;;;;5.50;4.10;;;19.90;99.90;;;;;;5114610;28;20207;-83
2022/09/23 12:09:59;;;;;;;8.67;4.63;;;19.70;99.90;;;;;;5114417;28;20192;-83
2022/09/23 12:12:34;;;;;;;5.17;3.93;;;19.60;99.90;;;;;;5114605;28;20203;-83
2022/09/23 12:15:06;;;;;;;8.00;3.77;;;19.90;99.90;;;;;;5114329;28;20207;-83
2022/09/23 12:17:57;;;;;;;4.90;3.17;;;20.00;99.90;;;;;;5114339;28;20651;-83
2022/09/23 12:20:41;;;;;;;9.23;4.50;;;20.10;99.90;;;;;;5114394;28;20669;-82
2022/09/23 12:23:23;;;;;;;8.13;4.40;;;20.20;99.90;;;;;;5114297;28;20433;-83
2022/09/23 12:25:56;;;;;;;11.43;4.53;;;20.30;99.90;;;;;;5113933;28;20584;-83
2022/09/23 12:28:27;;;;;;;10.20;4.33;;;20.50;99.90;;;;;;5114505;28;20236;-83
2022/09/23 12:30:57;;;;;;;11.50;4.73;;;20.50;99.90;;;;;;5113999;28;20357;-83
2022/09/23 12:33:27;;;;;;;7.63;3.90;;;20.60;99.90;;;;;;5114449;27;20204;-83
2022/09/23 12:36:01;;;;;;;7.43;4.17;;;20.30;99.90;;;;;;5114026;28;20211;-83
2022/09/23 12:38:35;;;;;;;12.87;5.07;;;20.30;99.90;;;;;;5113935;28;20671;-83
2022/09/23 12:41:08;;;;;;;10.83;4.23;;;20.20;99.90;;;;;;5114564;28;20189;-83
2022/09/23 12:43:35;;;;;;;23.93;5.93;;;20.60;99.90;;;;;;5114339;28;20206;-86
2022/09/23 12:46:24;;;;;;;10.47;4.40;;;20.70;99.90;;;;;;5114045;28;20219;-86
2022/09/23 12:49:02;;;;;;;11.00;5.07;;;20.60;99.90;;;;;;5114060;28;20665;-85
2022/09/23 12:51:32;;;;;;;13.70;5.57;;;20.50;99.90;;;;;;5114159;28;20204;-85
2022/09/23 12:54:24;;;;;;;5.83;4.07;;;20.40;99.90;;;;;;5114167;28;20190;-86
2022/09/23 12:57:06;;;;;;;10.17;4.80;;;20.40;99.90;;;;;;5114077;28;20211;-86
2022/09/23 12:59:54;;;;;;;5.70;4.77;;;20.30;99.90;;;;;;5113449;28;20232;-83
2022/09/23 13:02:35;;;;;;;8.53;4.50;;;20.20;99.90;;;;;;5113675;28;20216;-83
2022/09/23 13:08:11;;;;;;;7.93;5.20;;;20.30;99.90;;;;;;5114299;28;20189;-83
2022/09/23 13:10:43;;;;;;;10.37;5.40;;;20.10;99.90;;;;;;5115898;28;20200;-85
2022/09/23 13:13:20;;;;;;;12.05;6.10;;;20.00;99.90;;;;;;5115746;28;20482;-83
2022/09/23 13:15:47;;;;;;;8.43;5.40;;;19.70;99.90;;;;;;5118035;28;20274;-83
2022/09/23 13:18:25;;;;;;;11.80;5.50;;;19.80;99.90;;;;;;5117806;28;20189;-83